• Join FlightAware (Why Join?)
  • Login
  • US Flag 
04:31AM EDT


 

Airport Tracker/Info


-or-


 

Live Flight TrackerFlight Track Log ✈ AAL1624 ✈ 19-Apr-2013 ✈ KLAX - KORD

Flight Track Log - Related Links

Times and Time Zones

All times are in EDT time to prevent confusion due to time zone crossing. See the AAL1624 flight status page for this flight to view local times or setup timezone preferences in your user account.

Time Position Orientation Groundspeed Altitude Reporting Facility
EDT Latitude Longitude Course Direction KTS MPH feet Rate Location/Type
06:27PM 33.9360 -118.4200 262° West 163 188 700  Level FlightAware
06:28PM 33.9320 -118.4480 260° West 175 201 1,600 1,380 Climbing FlightAware
06:28PM 33.9290 -118.4680 260° West 192 221 2,000 1,020 Climbing FlightAware
06:29PM 33.9230 -118.4870 249° West 214 246 2,300 1,440 Climbing FlightAware
06:29PM 33.9110 -118.5250 249° West 241 277 3,100 1,740 Climbing FlightAware
06:29PM 33.9010 -118.5540 247° West 249 287 3,900 2,100 Climbing FlightAware
06:30PM 33.8920 -118.5720 239° Southwest 251 289 4,500 2,160 Climbing FlightAware
06:30PM 33.8840 -118.5820 226° Southwest 254 292 4,800 2,160 Climbing FlightAware
06:30PM 33.8580 -118.5880 191° South 261 300 5,600 2,400 Climbing FlightAware
06:30PM 33.8410 -118.5800 159° South 261 300 6,200 1,980 Climbing FlightAware
06:31PM 33.8310 -118.5660 131° Southeast 258 297 6,600 2,700 Climbing FlightAware
06:31PM 33.8320 -118.5150 89° East 255 293 8,000 3,000 Climbing FlightAware
06:31PM 33.8460 -118.4990 44° Northeast 256 295 8,600 2,220 Climbing FlightAware
06:32PM 33.8680 -118.4830 31° Northeast 266 306 9,500 2,640 Climbing FlightAware
06:33PM 33.9180 -118.4440 33° Northeast 274 315 11,700 2,520 Climbing FlightAware
06:33PM 33.9550 -118.3940 48° Northeast 311 358 13,100 1,500 Climbing FlightAware
06:34PM 33.9920 -118.3290 56° Northeast 321 369 13,900 720 Climbing FlightAware
06:35PM 34.0250 -118.2700 56° Northeast 333 383 14,200 960 Climbing FlightAware
06:35PM 34.0630 -118.2040 55° Northeast 368 423 15,200 1,800 Climbing FlightAware
06:36PM 34.1070 -118.1260 56° Northeast 388 447 16,800 1,860 Climbing FlightAware
06:37PM 34.1420 -118.0620 57° Northeast 409 471 17,700 1,620 Climbing FlightAware
06:37PM 34.1690 -117.9590 72° East 422 486 19,000 1,560 Climbing FlightAware
06:38PM 34.1920 -117.8600 74° East 426 490 20,100 1,680 Climbing FlightAware
06:39PM 34.2250 -117.7710 66° East 426 490 21,400 1,860 Climbing FlightAware
06:40PM 34.2790 -117.6860 52° Northeast 431 496 22,800 1,800 Climbing FlightAware
06:40PM 34.3260 -117.6110 53° Northeast 437 503 24,000 1,800 Climbing FlightAware
06:41PM 34.3880 -117.5240 49° Northeast 439 505 25,400 1,620 Climbing FlightAware
06:42PM 34.4380 -117.4570 48° Northeast 448 516 26,300 1,320 Climbing FlightAware
06:42PM 34.4990 -117.3750 48° Northeast 459 528 27,200 1,380 Climbing FlightAware
06:43PM 34.5550 -117.2980 49° Northeast 466 536 28,200 1,440 Climbing FlightAware
06:44PM 34.6200 -117.2100 48° Northeast 466 536 29,300 1,680 Climbing FlightAware
06:44PM 34.6760 -117.1330 48° Northeast 461 531 30,600 1,740 Climbing FlightAware
06:45PM 34.7390 -117.0470 48° Northeast 456 525 31,800 1,500 Climbing FlightAware
06:46PM 34.8010 -116.9620 48° Northeast 448 516 32,900 1,320 Climbing FlightAware
06:47PM 34.8570 -116.8850 48° Northeast 447 514 33,700 1,200 Climbing FlightAware
06:47PM 34.8990 -116.8280 48° Northeast 446 513 34,300 1,200 Climbing FlightAware
06:48PM 34.9540 -116.7520 49° Northeast 445 512 35,100 1,020 Climbing FlightAware
06:48PM 35.0080 -116.6760 49° Northeast 445 512 35,700 900 Climbing FlightAware
06:49PM 35.0710 -116.5900 48° Northeast 445 512 36,400 840 Climbing FlightAware
06:50PM 35.1040 -116.5430 49° Northeast 444 511 36,700 480 Climbing FlightAware
06:50PM 35.1680 -116.4550 48° Northeast 449 517 37,000 180 Climbing FlightAware
06:51PM 35.2150 -116.3890 49° Northeast 449 517 37,000  Level FlightAware
06:52PM 35.2830 -116.2930 49° Northeast 446 513 37,000  Level FlightAware
06:52PM 35.3390 -116.2160 48° Northeast 448 516 37,000  Level FlightAware
06:53PM 35.3930 -116.1390 49° Northeast 448 516 37,000  Level FlightAware
06:54PM 35.4530 -116.0550 49° Northeast 447 514 37,000  Level FlightAware
06:54PM 35.5100 -115.9740 49° Northeast 447 514 37,000  Level FlightAware
06:55PM 35.5690 -115.8910 49° Northeast 448 516 37,000  Level FlightAware
06:56PM 35.6240 -115.8130 49° Northeast 448 516 37,000  Level FlightAware
06:57PM 35.6780 -115.7360 49° Northeast 448 516 37,000  Level FlightAware
06:57PM 35.7410 -115.6470 49° Northeast 450 518 37,000  Level FlightAware
06:58PM 35.7960 -115.5680 49° Northeast 453 521 37,000  Level FlightAware
06:59PM 35.8560 -115.4810 50° Northeast 453 521 37,000  Level FlightAware
06:59PM 35.9110 -115.4040 49° Northeast 454 522 37,000  Level FlightAware
07:00PM 35.9640 -115.3270 50° Northeast 455 524 37,000  Level FlightAware
07:01PM 36.0270 -115.2370 49° Northeast 453 521 37,000  Level FlightAware
07:01PM 36.0830 -115.1560 49° Northeast 451 519 37,000  Level FlightAware
07:02PM 36.1380 -115.0860 46° Northeast 449 517 37,000  Level FlightAware
07:03PM 36.2040 -115.0020 46° Northeast 449 517 37,000  Level FlightAware
07:04PM 36.2620 -114.9290 45° Northeast 450 518 37,000  Level FlightAware
07:04PM 36.3070 -114.8720 46° Northeast 452 520 37,000  Level FlightAware
07:05PM 36.3640 -114.7990 46° Northeast 458 527 37,000  Level FlightAware
07:05PM 36.4320 -114.7110 46° Northeast 463 533 37,000  Level FlightAware
07:06PM 36.4900 -114.6340 47° Northeast 466 536 37,000  Level FlightAware
07:07PM 36.5560 -114.5490 46° Northeast 470 541 37,000  Level FlightAware
07:08PM 36.6180 -114.4680 46° Northeast 471 542 37,000  Level FlightAware
07:08PM 36.6770 -114.3900 47° Northeast 472 543 37,000  Level FlightAware
07:09PM 36.7450 -114.2980 47° Northeast 472 543 37,000  Level FlightAware
07:09PM 36.7810 -114.2360 54° Northeast 481 554 37,000  Level FlightAware
07:11PM 36.8560 -114.0850 58° Northeast 481 554 37,000  Level FlightAware
07:11PM 36.8960 -114.0050 58° Northeast 481 554 37,000  Level FlightAware
07:12PM 36.9360 -113.9240 58° Northeast 481 554 37,000  Level FlightAware
07:13PM 37.0050 -113.7710 61° Northeast 478 550 37,000  Level FlightAware
07:13PM 37.0500 -113.6760 59° Northeast 479 551 37,000  Level FlightAware
07:14PM 37.0960 -113.5790 59° Northeast 481 554 37,000  Level FlightAware
07:15PM 37.1470 -113.4720 59° Northeast 481 554 37,000  Level FlightAware
07:15PM 37.1870 -113.3890 59° Northeast 481 554 37,000  Level FlightAware
07:16PM 37.2250 -113.3070 60° Northeast 481 554 37,000  Level FlightAware
07:17PM 37.2640 -113.2260 59° Northeast 481 554 37,000  Level FlightAware
07:17PM 37.3030 -113.1440 59° Northeast 481 554 37,000  Level FlightAware
07:18PM 37.3750 -112.9850 60° Northeast 478 550 37,000  Level FlightAware
07:19PM 37.4400 -112.8470 59° Northeast 477 549 37,000  Level FlightAware
07:20PM 37.4790 -112.7660 59° Northeast 477 549 37,000  Level FlightAware
07:21PM 37.5180 -112.6850 59° Northeast 477 549 37,000  Level FlightAware
07:21PM 37.5560 -112.6040 59° Northeast 477 549 37,000  Level FlightAware
07:22PM 37.5950 -112.5220 59° Northeast 477 549 37,000  Level FlightAware
07:23PM 37.6430 -112.4210 59° Northeast 477 549 37,000  Level FlightAware
07:23PM 37.6820 -112.3400 59° Northeast 477 549 37,000  Level FlightAware
07:24PM 37.7200 -112.2580 60° Northeast 477 549 37,000  Level FlightAware
07:25PM 37.7590 -112.1770 59° Northeast 477 549 37,000  Level FlightAware
07:25PM 37.7980 -112.0960 59° Northeast 477 549 37,000  Level FlightAware
07:26PM 37.8460 -111.9940 59° Northeast 477 549 37,000  Level FlightAware
07:27PM 37.8850 -111.9120 59° Northeast 477 549 37,000  Level FlightAware
07:28PM 37.9230 -111.8310 59° Northeast 477 549 37,000  Level FlightAware
07:28PM 37.9620 -111.7490 59° Northeast 477 549 37,000  Level FlightAware
07:29PM 38.1108 -111.5694 59° Northeast 456 525 37,000  Level Denver Center
07:30PM 38.1850 -111.4392 54° Northeast 457 526 37,000  Level Denver Center
07:31PM 38.2581 -111.3081 55° Northeast 456 525 37,000  Level Denver Center
07:32PM 38.3489 -111.1503 54° Northeast 462 532 37,000  Level Salt Lake Center
07:33PM 38.4233 -111.0183 54° Northeast 460 529 37,000  Level Salt Lake Center
07:34PM 38.5042 -110.8728 55° Northeast 461 531 37,000  Level Salt Lake Center
07:35PM 38.5764 -110.7436 54° Northeast 466 536 37,000  Level Salt Lake Center
07:36PM 38.6436 -110.6106 57° Northeast 465 535 37,000  Level Denver Center
07:37PM 38.7294 -110.4611 54° Northeast 468 539 37,000  Level Denver Center
07:38PM 38.7992 -110.3319 55° Northeast 461 531 37,000  Level Denver Center
07:43PM 39.1870 -109.6170 55° Northeast 456 525 37,000  Level FlightAware
07:44PM 39.2380 -109.5210 56° Northeast 457 526 37,000  Level FlightAware
07:45PM 39.3020 -109.4000 56° Northeast 458 527 37,000  Level FlightAware
07:45PM 39.3560 -109.2980 56° Northeast 457 526 37,000  Level FlightAware
07:46PM 39.4050 -109.2060 55° Northeast 456 525 37,000  Level FlightAware
07:47PM 39.4540 -109.1120 56° Northeast 453 521 37,000  Level FlightAware
07:48PM 39.5030 -109.0190 56° Northeast 453 521 37,000  Level FlightAware
07:48PM 39.5520 -108.9260 56° Northeast 453 521 37,000  Level FlightAware
07:49PM 39.5890 -108.8560 56° Northeast 455 524 37,000  Level FlightAware
07:50PM 39.6360 -108.7680 55° Northeast 455 524 37,000  Level FlightAware
07:50PM 39.7000 -108.6420 57° Northeast 462 532 37,000  Level FlightAware
07:51PM 39.7540 -108.5380 56° Northeast 462 532 37,000  Level FlightAware
07:52PM 39.7990 -108.4500 56° Northeast 462 532 37,000  Level FlightAware
07:52PM 39.8360 -108.3790 56° Northeast 460 529 37,000  Level FlightAware
07:53PM 39.8920 -108.2700 56° Northeast 460 529 37,000  Level FlightAware
07:54PM 39.9520 -108.1520 56° Northeast 460 529 37,000  Level FlightAware
07:55PM 39.9930 -108.0740 56° Northeast 460 529 37,000  Level FlightAware
07:55PM 40.0470 -107.9640 57° Northeast 37,000  Level FlightAware
07:56PM 40.1150 -107.8170 59° Northeast 473 544 37,000  Level FlightAware
07:57PM 40.1590 -107.7170 60° Northeast 478 550 37,000  Level FlightAware
07:58PM 40.2030 -107.6180 60° Northeast 477 549 37,000  Level FlightAware
07:58PM 40.2510 -107.5060 61° Northeast 479 551 37,000  Level FlightAware
07:59PM 40.2960 -107.4040 60° Northeast 476 548 37,000  Level FlightAware
08:00PM 40.3440 -107.2920 61° Northeast 474 545 37,000  Level FlightAware
08:00PM 40.3860 -107.1950 60° Northeast 470 541 37,000  Level FlightAware
08:01PM 40.4410 -107.0690 60° Northeast 467 537 37,000  Level FlightAware
08:02PM 40.4900 -106.9560 60° Northeast 467 537 37,000  Level FlightAware
08:03PM 40.5440 -106.8270 61° Northeast 462 532 37,000  Level FlightAware
08:04PM 40.5900 -106.7190 61° Northeast 461 531 37,000  Level FlightAware
08:04PM 40.6390 -106.6050 60° Northeast 461 531 37,000  Level FlightAware
08:05PM 40.6890 -106.4860 61° Northeast 463 533 37,000  Level FlightAware
08:06PM 40.7370 -106.3700 61° Northeast 462 532 37,000  Level FlightAware
08:07PM 40.7840 -106.2600 61° Northeast 462 532 37,000  Level FlightAware
08:07PM 40.8250 -106.1620 61° Northeast 462 532 37,000  Level FlightAware
08:08PM 40.8720 -106.0490 61° Northeast 460 529 37,000  Level FlightAware
08:09PM 40.9120 -105.9540 61° Northeast 458 527 37,000  Level FlightAware
08:09PM 40.9530 -105.8530 62° Northeast 464 534 37,000  Level FlightAware
08:10PM 40.9990 -105.7420 61° Northeast 466 536 37,000  Level FlightAware
08:11PM 41.0400 -105.6400 62° Northeast 467 537 37,000  Level FlightAware
08:12PM 41.0880 -105.5240 61° Northeast 466 536 37,000  Level FlightAware
08:12PM 41.1270 -105.4280 62° Northeast 465 535 37,000  Level FlightAware
08:13PM 41.1840 -105.2890 61° Northeast 462 532 37,000  Level FlightAware
08:14PM 41.2343 -105.1640 62° Northeast 462 532 37,000  Level FlightAware ADS-B
08:15PM 41.2656 -105.0860 62° Northeast 461 531 37,000  Level FlightAware ADS-B
08:15PM 41.2975 -105.0070 62° Northeast 459 528 37,000  Level FlightAware ADS-B
08:16PM 41.3276 -104.9320 62° Northeast 459 528 37,000  Level FlightAware ADS-B
08:16PM 41.3576 -104.8570 62° Northeast 457 526 37,000  Level FlightAware ADS-B
08:17PM 41.3917 -104.7710 62° Northeast 455 524 37,000  Level FlightAware ADS-B
08:17PM 41.4215 -104.6970 62° Northeast 453 521 37,000  Level FlightAware ADS-B
08:18PM 41.4510 -104.6230 62° Northeast 451 519 37,000  Level FlightAware ADS-B
08:18PM 41.4806 -104.5480 62° Northeast 450 518 37,000  Level FlightAware ADS-B
08:19PM 41.5101 -104.4730 62° Northeast 451 519 37,000  Level FlightAware ADS-B
08:19PM 41.5393 -104.3990 62° Northeast 451 519 37,000  Level FlightAware ADS-B
08:20PM 41.5697 -104.3220 62° Northeast 450 518 37,000  Level FlightAware ADS-B
08:20PM 41.6000 -104.2450 62° Northeast 455 524 37,000  Level FlightAware ADS-B
08:21PM 41.6297 -104.1690 62° Northeast 458 527 37,000  Level FlightAware ADS-B
08:21PM 41.6592 -104.0930 63° Northeast 458 527 37,000  Level FlightAware ADS-B
08:22PM 41.6906 -104.0120 63° Northeast 463 533 37,000  Level FlightAware ADS-B
08:22PM 41.7200 -103.9360 63° Northeast 463 533 37,000  Level FlightAware ADS-B
08:23PM 41.7503 -103.8570 63° Northeast 463 533 37,000  Level FlightAware ADS-B
08:23PM 41.7804 -103.7790 63° Northeast 463 533 37,000  Level FlightAware ADS-B
08:24PM 41.8095 -103.7030 63° Northeast 460 529 37,000  Level FlightAware ADS-B
08:24PM 41.8391 -103.6260 63° Northeast 458 527 37,000  Level FlightAware ADS-B
08:25PM 41.8721 -103.5390 63° Northeast 457 526 37,000  Level FlightAware ADS-B
08:25PM 41.8846 -103.5010 66° East 458 527 37,000  Level FlightAware ADS-B
08:25PM 41.8986 -103.4430 72° East 462 532 37,000  Level FlightAware ADS-B
08:26PM 41.9035 -103.4140 77° East 464 534 37,000  Level FlightAware ADS-B
08:26PM 41.9156 -103.3290 79° East 463 533 37,000  Level FlightAware ADS-B
08:27PM 41.9275 -103.2450 79° East 462 532 37,000  Level FlightAware ADS-B
08:27PM 41.9396 -103.1580 79° East 462 532 37,000  Level FlightAware ADS-B
08:28PM 41.9520 -103.0690 79° East 461 531 37,000  Level FlightAware ADS-B
08:28PM 41.9649 -102.9760 79° East 459 528 37,000  Level FlightAware ADS-B
08:29PM 41.9767 -102.8910 79° East 458 527 37,000  Level FlightAware ADS-B
08:29PM 41.9883 -102.8070 79° East 459 528 37,000  Level FlightAware ADS-B
08:30PM 42.0002 -102.7190 80° East 460 529 37,000  Level FlightAware ADS-B
08:30PM 42.0117 -102.6330 80° East 458 527 37,000  Level FlightAware ADS-B
08:31PM 42.0258 -102.5270 80° East 456 525 37,000  Level FlightAware ADS-B
08:31PM 42.0370 -102.4430 80° East 457 526 37,000  Level FlightAware ADS-B
08:32PM 42.0482 -102.3580 80° East 460 529 37,000  Level FlightAware ADS-B
08:32PM 42.0593 -102.2720 80° East 459 528 37,000  Level FlightAware ADS-B
08:33PM 42.0764 -102.1410 80° East 459 528 37,000  Level FlightAware ADS-B
08:34PM 42.1024 -101.9410 80° East 457 526 37,000  Level FlightAware ADS-B
08:35PM 42.1103 -101.8914 80° East 461 531 37,000  Level Denver Center
08:36PM 42.1322 -101.7058 81° East 454 522 37,000  Level Denver Center
08:37PM 42.1525 -101.5433 80° East 457 526 37,000  Level Denver Center
08:38PM 42.1797 -101.3222 80° East 465 535 37,000  Level Denver Center
08:39PM 42.1992 -101.1583 81° East 464 534 37,000  Level Denver Center
08:40PM 42.2231 -100.9631 81° East 469 540 37,000  Level Denver Center
08:41PM 42.2425 -100.7994 81° East 465 535 37,000  Level Denver Center
08:42PM 42.2644 -100.6058 81° East 466 536 37,000  Level Denver Center
08:43PM 42.2839 -100.4406 81° East 466 536 37,000  Level Denver Center
08:44PM 42.3061 -100.2469 81° East 467 537 37,000  Level Denver Center
08:45PM 42.3269 -100.0608 81° East 467 537 37,000  Level Minneapolis Center
08:46PM 42.3433 -99.9125 81° East 469 540 37,000  Level Denver Center
08:47PM 42.3639 -99.7147 82° East 474 545 37,000  Level Denver Center
08:48PM 42.3839 -99.5294 82° East 475 547 37,000  Level Denver Center
08:49PM 42.4031 -99.3517 82° East 475 547 37,000  Level Denver Center
08:51PM 42.4222 -99.1739 82° East 477 549 37,000  Level Minneapolis Center
08:52PM 42.4428 -98.9619 82° East 474 545 37,000  Level Minneapolis Center
08:53PM 42.4619 -98.7839 82° East 476 548 37,000  Level Minneapolis Center
08:54PM 42.4753 -98.6047 84° East 477 549 37,000  Level Minneapolis Center
08:55PM 42.4839 -98.4247 86° East 478 550 37,000  Level Minneapolis Center
08:56PM 42.4922 -98.2439 86° East 479 551 37,000  Level Minneapolis Center
08:57PM 42.5011 -98.0633 86° East 479 551 37,000  Level Minneapolis Center
08:58PM 42.5092 -97.8842 86° East 476 548 37,000  Level Minneapolis Center
08:59PM 42.5178 -97.6744 87° East 478 550 37,000  Level Minneapolis Center
09:00PM 42.5250 -97.4947 87° East 477 549 37,000  Level Minneapolis Center
09:01PM 42.5325 -97.3100 87° East 486 559 37,000  Level Minneapolis Center
09:02PM 42.5397 -97.1261 87° East 487 560 37,000  Level Minneapolis Center
09:03PM 42.5472 -96.9403 87° East 490 564 37,000  Level Minneapolis Center
09:04PM 42.5536 -96.7556 87° East 491 565 37,000  Level Minneapolis Center
09:05PM 42.5592 -96.5697 88° East 490 564 37,000  Level Minneapolis Center
09:06PM 42.5664 -96.3497 87° East 487 560 37,000  Level Minneapolis Center
09:07PM 42.5717 -96.1681 88° East 483 556 37,000  Level Minneapolis Center
09:08PM 42.5778 -95.9869 87° East 481 554 37,000  Level Minneapolis Center
09:09PM 42.5819 -95.8053 88° East 480 552 37,000  Level Minneapolis Center
09:10PM 42.5861 -95.6219 88° East 484 557 37,000  Level Minneapolis Center
09:11PM 42.5903 -95.4389 88° East 485 558 37,000  Level Minneapolis Center
09:12PM 42.5936 -95.2544 89° East 486 559 37,000  Level Minneapolis Center
09:13PM 42.5989 -95.0358 88° East 485 558 37,000  Level Minneapolis Center
09:14PM 42.6019 -94.8522 89° East 487 560 37,000  Level Minneapolis Center
09:15PM 42.6058 -94.6678 88° East 488 562 37,000  Level Minneapolis Center
09:21PM 42.5770 -93.5520 88° East 481 554 37,000  Level FlightAware
09:22PM 42.5720 -93.4360 93° East 480 552 37,000  Level FlightAware
09:23PM 42.5740 -93.2550 89° East 479 551 37,000  Level FlightAware
09:24PM 42.5760 -93.1390 89° East 480 552 37,000  Level FlightAware
09:25PM 42.5780 -93.0070 89° East 480 552 37,000  Level FlightAware
09:25PM 42.5790 -92.8720 89° East 481 554 37,000  Level FlightAware
09:26PM 42.5800 -92.7440 89° East 481 554 37,000  Level FlightAware
09:27PM 42.5810 -92.6240 89° East 482 555 37,000  Level FlightAware
09:27PM 42.5830 -92.5040 89° East 483 556 37,000  Level FlightAware
09:28PM 42.5840 -92.3700 89° East 485 558 37,000  Level FlightAware
09:29PM 42.5840 -92.2420 90° East 486 559 37,000  Level FlightAware
09:29PM 42.5850 -92.1170 89° East 487 560 37,000 -300 Level FlightAware
09:30PM 42.5850 -91.9860 90° East 487 560 36,600 -720 Descending FlightAware
09:31PM 42.5850 -91.8670 90° East 485 558 36,000 -1,020 Descending FlightAware
09:32PM 42.5850 -91.7230 90° East 488 562 35,200 -1,080 Descending FlightAware
09:32PM 42.5860 -91.6030 89° East 488 562 34,500 -1,020 Descending FlightAware
09:33PM 42.5860 -91.4680 90° East 488 562 33,800 -960 Descending FlightAware
09:34PM 42.5850 -91.3430 91° East 490 564 33,200 -900 Descending FlightAware
09:34PM 42.5850 -91.2210 90° East 489 563 32,600 -1,020 Descending FlightAware
09:35PM 42.5840 -91.0830 91° East 492 566 31,800 -1,020 Descending FlightAware
09:36PM 42.5840 -90.9610 90° East 489 563 31,200 -600 Descending FlightAware
09:36PM 42.5830 -90.8410 91° East 488 562 31,000 -180 Descending FlightAware
09:37PM 42.5820 -90.7010 91° East 488 562 31,000 -540 Level FlightAware
09:38PM 42.5810 -90.5770 91° East 484 557 30,300 -1,020 Descending FlightAware
09:39PM 42.5800 -90.4460 91° East 480 552 29,600 -960 Descending FlightAware
09:39PM 42.5770 -90.3240 92° East 472 543 29,000 -1,020 Descending FlightAware
09:40PM 42.5630 -90.1910 98° East 463 533 28,200 -1,080 Descending FlightAware
09:41PM 42.5510 -90.0790 98° East 454 522 27,500 -1,020 Descending FlightAware
09:41PM 42.5390 -89.9690 98° East 453 521 26,900 -1,020 Descending FlightAware
09:42PM 42.5260 -89.8380 98° East 450 518 26,100 -1,020 Descending FlightAware
09:43PM 42.5140 -89.7300 99° East 444 511 25,500 -1,020 Descending FlightAware
09:43PM 42.5020 -89.6170 98° East 445 512 24,800 -1,020 Descending FlightAware
09:44PM 42.4890 -89.4960 98° East 446 513 24,100 -1,200 Descending FlightAware
09:45PM 42.4760 -89.3830 99° East 443 510 23,100 -1,980 Descending FlightAware
09:46PM 42.4630 -89.2600 98° East 433 498 21,300 -2,400 Descending FlightAware
09:46PM 42.4510 -89.1580 99° East 423 487 19,700 -2,340 Descending FlightAware
09:47PM 42.4380 -89.0400 98° East 413 475 18,000 -2,280 Descending FlightAware
09:48PM 42.4260 -88.9390 99° East 403 464 16,500 -2,340 Descending FlightAware
09:48PM 42.4150 -88.8390 98° East 398 458 14,900 -2,220 Descending FlightAware
09:49PM 42.4020 -88.7300 99° East 387 445 13,400 -1,980 Descending FlightAware
09:50PM 42.3910 -88.6350 99° East 379 436 12,100 -2,040 Descending FlightAware
09:50PM 42.3800 -88.5420 99° East 372 428 10,700 -1,440 Descending FlightAware
09:51PM 42.3590 -88.4470 107° East 362 417 10,100 -480 Descending FlightAware
09:52PM 42.3270 -88.3660 118° Southeast 363 418 10,100  Level FlightAware
09:53PM 42.2780 -88.2850 129° Southeast 364 419 10,100  Level FlightAware
09:53PM 42.2370 -88.2150 128° Southeast 363 418 10,100  Level FlightAware
09:54PM 42.1910 -88.1490 133° Southeast 362 417 10,100  Level FlightAware
09:55PM 42.1350 -88.0860 140° Southeast 337 388 10,100 -180 Level FlightAware
09:55PM 42.1080 -88.0540 139° Southeast 314 361 9,900 -780 Descending FlightAware
09:56PM 42.0740 -88.0160 140° Southeast 300 345 9,400 -1,200 Descending FlightAware
09:56PM 42.0420 -87.9790 139° Southeast 297 342 8,700 -1,320 Descending FlightAware
09:56PM 42.0170 -87.9520 141° Southeast 296 341 8,200 -1,320 Descending FlightAware
09:57PM 41.9860 -87.9160 139° Southeast 295 339 7,500 -1,200 Descending FlightAware
09:57PM 41.9600 -87.8870 140° Southeast 286 329 7,100 -480 Descending FlightAware
09:58PM 41.9300 -87.8540 141° Southeast 253 291 7,100  Level FlightAware
09:58PM 41.9060 -87.8260 139° Southeast 228 262 7,100  Level FlightAware
09:59PM 41.8890 -87.8000 131° Southeast 228 262 7,100  Level FlightAware
09:59PM 41.8850 -87.7800 105° East 226 260 7,100 -1,080 Level FlightAware
10:00PM 41.8840 -87.7360 92° East 230 265 6,300 -1,440 Descending FlightAware
10:00PM 41.8840 -87.7020 90° East 228 262 5,800 -1,200 Descending FlightAware
10:00PM 41.8840 -87.6790 90° East 227 261 5,500 -900 Descending FlightAware
10:01PM 41.8840 -87.6480 90° East 225 259 5,200 -480 Descending FlightAware
10:01PM 41.8840 -87.6070 90° East 219 252 5,100 -120 Descending FlightAware
10:02PM 41.8840 -87.5680 90° East 219 252 5,100  Level FlightAware
10:02PM 41.8840 -87.5360 90° East 212 244 5,100  Level FlightAware
10:03PM 41.8850 -87.4930 88° East 210 242 5,100  Level FlightAware
10:03PM 41.8840 -87.4510 92° East 212 244 5,100  Level FlightAware
10:03PM 41.8840 -87.4200 90° East 215 247 5,100  Level FlightAware
10:04PM 41.9010 -87.3740 64° Northeast 173 199 5,100  Level FlightAware
10:05PM 41.9280 -87.3810 349° North 150 173 5,100  Level FlightAware
10:05PM 41.9390 -87.3980 311° West 147 169 5,100  Level FlightAware
10:06PM 41.9510 -87.4180 309° West 145 167 5,100  Level FlightAware
10:06PM 41.9650 -87.4410 309° West 144 166 5,100  Level FlightAware
10:07PM 41.9690 -87.4610 285° West 145 167 5,100  Level FlightAware
10:07PM 41.9690 -87.4820 270° West 145 167 5,100  Level FlightAware
10:08PM 41.9690 -87.5150 270° West 145 167 5,100  Level FlightAware
10:08PM 41.9690 -87.5480 270° West 149 171 5,100  Level FlightAware
10:09PM 41.9690 -87.5740 270° West 150 173 5,100 -120 Level FlightAware
10:09PM 41.9690 -87.6020 270° West 151 174 5,000 -600 Descending FlightAware
10:10PM 41.9690 -87.6270 270° West 152 175 4,600 -900 Descending FlightAware
10:10PM 41.9690 -87.6540 270° West 148 170 4,200 -840 Descending FlightAware
10:11PM 41.9690 -87.6820 270° West 148 170 3,800 -900 Descending FlightAware
10:11PM 41.9690 -87.7060 270° West 147 169 3,400 -900 Descending FlightAware
10:12PM 41.9690 -87.7310 270° West 145 167 3,000 -780 Descending FlightAware
10:12PM 41.9690 -87.7620 270° West 138 159 2,600 -720 Descending FlightAware
10:13PM 41.9690 -87.7840 270° West 128 147 2,300 -720 Descending FlightAware
10:13PM 41.9690 -87.8030 270° West 125 144 2,000 -780 Descending FlightAware
10:14PM 41.9690 -87.8330 270° West 126 145 1,500 -720 Descending FlightAware
10:14PM 41.9690 -87.8550 270° West 131 151 1,200 -720 Descending FlightAware
10:15PM 41.9690 -87.8740 270° West 131 151 900 -540 Descending FlightAware
10:15PM 41.9690 -87.9050 270° West 134 154 700 -300 Descending FlightAware